Rankings de siempre
Mejores tiempos personales válidos de atleta a través de todos los eventos y temporadas. Cada atleta aparece una vez por división.
Busca por nombre y abre la página donde está clasificado este récord de división.
104,221 atletas clasificados
| Pos. | Pos. AG | Atleta | Nacionalidad | Categoría de edad | TiempoMejor tiempo | Diferencia |
|---|---|---|---|---|---|---|
| 90951 | #22012 | Karlien BeaurainRSA · W 25-29 · AG #22012 | RSA | W 25-29 | 2:00:28 | +80:52 |
| 90952 | #16747 | Lucie KrálováCZE · W 35-39 · AG #16747 | CZE | W 35-39 | 2:00:28 | +80:52 |
| 90953 | #16749 | Laura CableUSA · W 35-39 · AG #16749 | USA | W 35-39 | 2:00:28 | +80:52 |
| 90954 | #16748 | Gemma CollisterGBR · W 35-39 · AG #16748 | GBR | W 35-39 | 2:00:28 | +80:52 |
| 90955 | #21724 | Svenja Maria MüllerGER · W 30-34 · AG #21724 | GER | W 30-34 | 2:00:28 | +80:52 |
| 90956 | #21726 | Kaylei IbarraUSA · W 30-34 · AG #21726 | USA | W 30-34 | 2:00:28 | +80:52 |
| 90957 | #6621 | Naomi ClarkeGBR · W 45-49 · AG #6621 | GBR | W 45-49 | 2:00:28 | +80:52 |
| 90958 | #11786 | Pornphan KamolphantipTHA · W 40-44 · AG #11786 | THA | W 40-44 | 2:00:28 | +80:52 |
| 90959 | #22013 | 子晔 李CHN · W 25-29 · AG #22013 | CHN | W 25-29 | 2:00:28 | +80:52 |
| 90960 | #21727 | Tanzeela AhmedGBR · W 30-34 · AG #21727 | GBR | W 30-34 | 2:00:28 | +80:52 |
| 90961 | #12756 | Tlholohelo JabariRSA · W 16-24 · AG #12756 | RSA | W 16-24 | 2:00:29 | +80:53 |
| 90962 | #21728 | María Fernanda SalinasMEX · W 30-34 · AG #21728 | MEX | W 30-34 | 2:00:29 | +80:53 |
| 90963 | #12757 | Fer ArjonMEX · W 16-24 · AG #12757 | MEX | W 16-24 | 2:00:29 | +80:53 |
| 90964 | #21729 | Mary Kate RomanoUSA · W 30-34 · AG #21729 | USA | W 30-34 | 2:00:29 | +80:53 |
| 90965 | #22014 | Sneha ChavanIND · W 25-29 · AG #22014 | IND | W 25-29 | 2:00:29 | +80:53 |
| 90966 | #3178 | May LokeSIN · W 50-54 · AG #3178 | SIN | W 50-54 | 2:00:29 | +80:53 |
| 90967 | #16750 | Cindy TaySIN · W 35-39 · AG #16750 | SIN | W 35-39 | 2:00:29 | +80:53 |
| 90968 | #6622 | Alexis FabbriUSA · W 45-49 · AG #6622 | USA | W 45-49 | 2:00:29 | +80:53 |
| 90969 | #21730 | Ingrid GasnierFRA · W 30-34 · AG #21730 | FRA | W 30-34 | 2:00:29 | +80:53 |
| 90970 | #11787 | Ally Li Theng YeopMAS · W 40-44 · AG #11787 | MAS | W 40-44 | 2:00:29 | +80:53 |
| 90971 | #22015 | Gabriela SalavyFRA · W 25-29 · AG #22015 | FRA | W 25-29 | 2:00:29 | +80:53 |
| 90972 | #11788 | 瑜 张CHN · W 40-44 · AG #11788 | CHN | W 40-44 | 2:00:29 | +80:53 |
| 90973 | #21731 | Alma JimenezUSA · W 30-34 · AG #21731 | USA | W 30-34 | 2:00:29 | +80:53 |
| 90974 | #11789 | sophia patagnanAUS · W 40-44 · AG #11789 | AUS | W 40-44 | 2:00:29 | +80:53 |
| 90975 | #21732 | Ilse Lyan NoorNED · W 30-34 · AG #21732 | NED | W 30-34 | 2:00:30 | +80:54 |
Página 3,639 de 4,169